Gwynedd Valley, PA (19437)

9:08 AM EST on February 11, 2016 (GMT -0500)
Ambler | | Change Station
CLOSE
Current Station
Personal Weather Station
Location: Ambler, PA
Elevation: 262 ft
Nearby Weather Stations
Active Advisory: Special Statement

Elev 262 ft 40.16 °N, 75.23 °W | Updated 1 minute ago

Snow
Snow
18.0 °F
Feels Like 18 °F
N
0.7
Wind Variable Wind from West
Gusts 0.7 mph

Today
High -- | Low -- °F
--% Chance of Precip.
Yesterday
High -- | Low -- °F
Precip. -- in
Pressure 29.98 in
Visibility 6.0 miles
Clouds Mostly Cloudy 2100 ft
Mostly Cloudy 3500 ft
Overcast 4600 ft
Windchill 18 °F
Dew Point 11 °F
Humidity 75%
Rainfall 0.00 in
Snow Depth Not available.
6:59 AM 5:31 PM
Waxing Crescent, 12% visible
METAR KDYL 111354Z AUTO 27007G18KT 6SM -SN BKN021 BKN035 OVC046 M08/M12 A2995 RMK AO2 SNB24 SLP152 P0000 T10781122
Pressure 29.98 in
Visibility 6.0 miles
Clouds Mostly Cloudy 2100 ft
Mostly Cloudy 3500 ft
Overcast 4600 ft
Windchill 18 °F
Dew Point 11 °F
Humidity 75%
Rainfall 0.00 in
Snow Depth Not available.
6:59 AM 5:31 PM
Waxing Crescent, 12% visible
METAR KDYL 111354Z AUTO 27007G18KT 6SM -SN BKN021 BKN035 OVC046 M08/M12 A2995 RMK AO2 SNB24 SLP152 P0000 T10781122

10-Day Weather Forecast

Almanac

Astronomy

Feb. 11, 2016 Rise Set
Actual Time
Civil Twilight
Nautical Twilight
Astronomical Twilight
Moon
Length of Visible Light
Length of Day
Tomorrow will be .
, % of the Moon is Illuminated

Today's Extremes

State Highs State Lows

Community

WunderPhotos

Upload Photos

1,892,047 photos uploaded!

WunderBlog® & News

Nearby

Air Quality

  Air Quality AQ Index Pollutant
Not available.

Snow Depth

Station Depth Elevation

Earthquake Activity

City Distance Mag. Time & Date
Minimum magnitude displayed is 2.5.

Coastal Water Temperatures

Place Temperature

Stations

Nearby Weather Stations

Station Location Temp. Windchill Dew Point Humidity Wind Precip. Elev Updated Type
                   

Watches & Warnings

Special Statement
Issued: 8:16 AM EST Feb. 11, 2016 – National Weather Service

... Snow showers...

Snow showers will bring reduced visibilities at times for the next
few hours. In southeast Pennsylvania... the snow showers will
affect the areas between reading and Philadelphia. The snow
showers will continue into Burlington and Camden counties New
Jersey. Reduce your speed if you encounter any of the snow
showers. A quick coating may create slippery travel, since the
ground temperatures are cold.



816 am EST Thu Feb 11 2016

... Snow showers...

Snow showers will bring reduced visibilities at times for the next
few hours. In southeast Pennsylvania... the snow showers will
affect the areas between reading and Philadelphia. The snow
showers will continue into Burlington and Camden counties New
Jersey. Reduce your speed if you encounter any of the snow
showers. A quick coating may create slippery travel, since the
ground temperatures are cold.